Time;durP1;ratioP1;P1;durP2;ratioP2;P2;SDS_P1;SDS_P2;PMS_P1;PMS_P2;Temp;Humidity;BMP_temperature;BMP_pressure;BME280_temperature;BME280_humidity;BME280_pressure;Samples;Min_cycle;Max_cycle;Signal;HPM_P1;HPM_P2
2023/11/13 00:00:15;;;;;;;18.58;6.47;;;4.20;99.90;;;;;;5027448;28;20061;-67
2023/11/13 00:02:41;;;;;;;21.48;8.35;;;4.30;99.90;;;;;;5025852;28;20037;-67
2023/11/13 00:05:07;;;;;;;16.05;6.32;;;4.30;99.90;;;;;;5027166;28;20490;-67
2023/11/13 00:07:33;;;;;;;19.65;7.13;;;4.30;99.90;;;;;;5027710;28;20029;-68
2023/11/13 00:09:59;;;;;;;20.13;6.15;;;4.30;99.90;;;;;;5027768;28;20434;-67
2023/11/13 00:12:24;;;;;;;17.20;6.63;;;4.40;99.90;;;;;;5027610;28;20084;-68
2023/11/13 00:14:50;;;;;;;10.90;6.38;;;4.40;99.90;;;;;;5027681;28;20026;-68
2023/11/13 00:17:17;;;;;;;19.48;6.30;;;4.50;99.90;;;;;;5025839;28;20112;-69
2023/11/13 00:19:47;;;;;;;19.52;7.50;;;4.50;99.90;;;;;;5024842;28;20692;-67
2023/11/13 00:22:12;;;;;;;12.63;6.32;;;4.50;99.90;;;;;;5025924;28;20041;-67
2023/11/13 00:24:39;;;;;;;13.23;6.65;;;4.60;99.90;;;;;;5026262;28;20627;-68
2023/11/13 00:27:05;;;;;;;15.95;6.18;;;4.60;99.90;;;;;;5028519;28;20057;-68
2023/11/13 00:29:30;;;;;;;18.58;6.07;;;4.60;99.90;;;;;;5025350;28;20099;-67
2023/11/13 00:31:56;;;;;;;12.88;5.97;;;4.70;99.90;;;;;;5027851;28;20032;-67
2023/11/13 00:34:22;;;;;;;12.68;6.00;;;4.70;99.90;;;;;;5028077;28;20469;-66
2023/11/13 00:36:50;;;;;;;13.35;5.30;;;4.70;99.90;;;;;;5027659;28;20021;-67
2023/11/13 00:39:17;;;;;;;11.90;5.20;;;4.80;99.90;;;;;;5024953;28;20473;-67
2023/11/13 00:41:42;;;;;;;13.77;5.20;;;4.80;99.90;;;;;;5000955;28;20122;-67
2023/11/13 00:44:08;;;;;;;13.05;4.95;;;4.90;99.90;;;;;;5028278;28;20124;-67
2023/11/13 00:46:33;;;;;;;11.45;5.45;;;4.90;99.90;;;;;;5027428;28;20502;-67
2023/11/13 00:48:59;;;;;;;8.40;5.03;;;5.00;99.90;;;;;;5027203;28;20029;-67
2023/11/13 00:51:24;;;;;;;14.98;5.00;;;5.00;99.90;;;;;;5026330;28;20045;-67
2023/11/13 00:53:50;;;;;;;8.80;4.57;;;5.00;99.90;;;;;;5026892;28;20087;-68
2023/11/13 00:56:16;;;;;;;12.77;5.13;;;5.00;99.90;;;;;;5025460;28;20041;-68
2023/11/13 00:58:42;;;;;;;10.25;5.00;;;5.00;99.90;;;;;;5025512;28;20037;-67
2023/11/13 01:01:10;;;;;;;22.52;5.72;;;5.00;99.90;;;;;;5023822;28;20111;-68
2023/11/13 01:03:36;;;;;;;7.00;3.80;;;5.00;99.90;;;;;;5027888;28;20025;-69
2023/11/13 01:06:03;;;;;;;12.13;4.50;;;5.10;99.90;;;;;;5026835;28;20025;-67
2023/11/13 01:08:29;;;;;;;7.93;4.50;;;5.10;99.90;;;;;;5027294;28;20030;-67
2023/11/13 01:10:55;;;;;;;9.05;4.38;;;5.00;99.90;;;;;;5026536;28;20064;-67
2023/11/13 01:13:21;;;;;;;9.32;4.28;;;5.00;99.90;;;;;;5026678;28;20033;-68
2023/11/13 01:15:52;;;;;;;10.15;4.38;;;5.00;99.90;;;;;;5017966;28;20037;-67
2023/11/13 01:18:18;;;;;;;10.45;4.38;;;5.00;99.90;;;;;;5023731;28;20021;-67
2023/11/13 01:20:47;;;;;;;9.88;4.18;;;5.00;99.90;;;;;;5024533;28;20025;-68
2023/11/13 01:23:13;;;;;;;8.68;4.07;;;5.00;99.90;;;;;;5023032;28;20116;-67
2023/11/13 01:25:40;;;;;;;6.85;4.05;;;5.00;99.90;;;;;;5025981;28;20033;-68
2023/11/13 01:28:06;;;;;;;11.90;4.97;;;5.00;99.90;;;;;;5027106;28;20051;-67
2023/11/13 01:30:32;;;;;;;12.52;4.93;;;5.10;99.90;;;;;;5027056;28;20061;-68
2023/11/13 01:32:58;;;;;;;7.80;4.43;;;5.10;99.90;;;;;;5026600;28;20025;-67
2023/11/13 01:35:26;;;;;;;8.88;4.13;;;5.20;99.90;;;;;;5026153;28;20040;-67
2023/11/13 01:37:52;;;;;;;12.25;4.75;;;5.20;99.90;;;;;;5024679;28;20021;-68
2023/11/13 01:40:18;;;;;;;9.27;3.83;;;5.20;99.90;;;;;;5026701;28;20402;-67
2023/11/13 01:42:44;;;;;;;8.05;4.50;;;5.20;99.90;;;;;;5000328;28;20581;-67
2023/11/13 01:45:10;;;;;;;10.15;4.53;;;5.20;99.90;;;;;;5026770;28;20577;-67
2023/11/13 01:47:36;;;;;;;13.15;4.30;;;5.20;99.90;;;;;;5027687;28;20061;-67
2023/11/13 01:50:07;;;;;;;7.65;4.15;;;5.30;99.90;;;;;;5030033;28;20108;-68
2023/11/13 01:52:34;;;;;;;10.57;4.68;;;5.30;99.90;;;;;;5029397;28;20025;-66
2023/11/13 01:55:02;;;;;;;8.30;3.75;;;5.30;99.90;;;;;;5030391;28;20040;-67
2023/11/13 01:57:29;;;;;;;11.32;4.10;;;5.40;99.90;;;;;;5027324;28;20018;-67
2023/11/13 01:59:55;;;;;;;8.38;3.85;;;5.40;99.90;;;;;;5029482;28;20040;-67
2023/11/13 02:02:22;;;;;;;10.80;4.75;;;5.40;99.90;;;;;;5023593;28;20033;-66
2023/11/13 02:04:47;;;;;;;7.47;3.95;;;5.40;99.90;;;;;;5027367;28;20100;-67
2023/11/13 02:07:13;;;;;;;11.23;4.32;;;5.50;99.90;;;;;;5031717;28;20105;-67
2023/11/13 02:09:41;;;;;;;6.88;3.58;;;5.50;99.90;;;;;;5027766;28;20641;-67
2023/11/13 02:12:10;;;;;;;11.18;3.55;;;5.50;99.90;;;;;;5029788;28;20036;-67
2023/11/13 02:14:36;;;;;;;6.60;3.92;;;5.60;99.90;;;;;;5029453;28;20029;-67
2023/11/13 02:17:06;;;;;;;9.50;3.83;;;5.50;99.90;;;;;;5022474;28;20049;-66
2023/11/13 02:19:31;;;;;;;8.15;3.88;;;5.60;99.90;;;;;;5028239;28;20041;-67
2023/11/13 02:22:00;;;;;;;9.88;3.97;;;5.60;99.90;;;;;;5028391;28;20021;-67
2023/11/13 02:24:26;;;;;;;11.13;4.00;;;5.60;99.90;;;;;;5026613;28;20076;-67
2023/11/13 02:26:52;;;;;;;8.15;3.90;;;5.60;99.90;;;;;;5030488;28;20458;-67
2023/11/13 02:29:18;;;;;;;7.57;3.67;;;5.70;99.90;;;;;;5029212;28;20026;-67
2023/11/13 02:31:54;;;;;;;6.45;3.97;;;5.70;99.90;;;;;;5029959;28;20406;-67
2023/11/13 02:34:21;;;;;;;6.38;3.70;;;5.70;99.90;;;;;;5029632;28;20013;-66
2023/11/13 02:36:52;;;;;;;6.97;3.80;;;5.80;99.90;;;;;;5030114;28;20109;-66
2023/11/13 02:39:19;;;;;;;7.78;3.88;;;5.80;99.90;;;;;;5027364;28;20021;-67
2023/11/13 02:41:45;;;;;;;14.27;4.32;;;5.80;99.90;;;;;;5030533;28;20026;-66
2023/11/13 02:44:11;;;;;;;7.32;3.70;;;5.90;99.90;;;;;;5029588;28;20018;-66
2023/11/13 02:46:36;;;;;;;6.53;3.58;;;5.90;99.90;;;;;;5030118;28;20033;-66
2023/11/13 02:49:02;;;;;;;5.63;3.22;;;5.90;99.90;;;;;;5030196;28;20025;-67
2023/11/13 02:51:28;;;;;;;6.00;3.38;;;5.90;99.90;;;;;;5029609;28;20483;-67
2023/11/13 02:53:54;;;;;;;8.40;3.88;;;6.00;99.90;;;;;;5024230;28;20040;-66
2023/11/13 02:56:20;;;;;;;7.38;3.70;;;6.00;99.90;;;;;;5028196;28;20029;-67
2023/11/13 02:58:47;;;;;;;8.55;3.47;;;6.00;99.90;;;;;;5034808;28;20040;-66
2023/11/13 03:01:14;;;;;;;9.00;3.33;;;6.00;99.90;;;;;;5024662;28;20041;-67
2023/11/13 03:03:40;;;;;;;9.07;4.18;;;6.10;99.90;;;;;;5029571;28;20064;-67
2023/11/13 03:06:06;;;;;;;5.72;3.53;;;6.10;99.90;;;;;;5033404;28;20032;-67
2023/11/13 03:08:32;;;;;;;8.55;4.13;;;6.10;99.90;;;;;;5031486;28;20045;-67
2023/11/13 03:10:57;;;;;;;6.38;3.25;;;6.10;99.90;;;;;;5033986;28;20533;-66
2023/11/13 03:13:23;;;;;;;9.13;3.83;;;6.10;99.90;;;;;;5032648;28;20040;-67
2023/11/13 03:15:49;;;;;;;5.63;3.38;;;6.10;99.90;;;;;;5032045;28;20138;-67
2023/11/13 03:18:16;;;;;;;5.50;3.22;;;6.20;99.90;;;;;;5030625;28;20486;-67
2023/11/13 03:20:44;;;;;;;6.40;3.33;;;6.10;99.90;;;;;;5032789;28;20033;-67
2023/11/13 03:23:13;;;;;;;6.95;3.80;;;6.20;99.90;;;;;;5027914;28;20364;-67
2023/11/13 03:25:38;;;;;;;7.20;3.83;;;6.20;99.90;;;;;;5030739;28;20030;-67
2023/11/13 03:28:04;;;;;;;10.35;4.15;;;6.20;99.90;;;;;;5035083;28;20026;-67
2023/11/13 03:30:32;;;;;;;5.80;3.40;;;6.20;99.90;;;;;;5039912;28;20020;-66
2023/11/13 03:32:59;;;;;;;7.03;3.17;;;6.20;99.90;;;;;;5031710;28;20037;-68
2023/11/13 03:35:24;;;;;;;6.45;3.65;;;6.20;99.90;;;;;;5039502;28;20462;-68
2023/11/13 03:37:50;;;;;;;9.02;4.10;;;6.20;99.90;;;;;;5032745;28;20104;-68
2023/11/13 03:40:15;;;;;;;8.73;3.53;;;6.20;99.90;;;;;;5038365;28;20479;-68
2023/11/13 03:42:41;;;;;;;7.80;3.90;;;6.20;99.90;;;;;;5040783;28;20113;-69
2023/11/13 03:45:07;;;;;;;6.63;3.47;;;6.20;99.90;;;;;;5041498;28;20067;-67
2023/11/13 03:47:33;;;;;;;7.75;3.97;;;6.30;99.90;;;;;;5039245;28;20029;-67
2023/11/13 03:49:58;;;;;;;7.40;4.18;;;6.30;99.90;;;;;;5041471;28;20040;-67
2023/11/13 03:52:24;;;;;;;6.53;4.00;;;6.30;99.90;;;;;;5036901;28;20016;-66
2023/11/13 03:54:50;;;;;;;6.38;3.70;;;6.30;99.90;;;;;;5036503;28;20068;-67
2023/11/13 03:57:15;;;;;;;5.32;3.50;;;6.30;99.90;;;;;;5039544;28;20033;-69
2023/11/13 03:59:42;;;;;;;7.68;4.00;;;6.30;99.90;;;;;;5039085;28;20041;-68
2023/11/13 04:02:07;;;;;;;7.65;4.00;;;6.20;99.90;;;;;;5041469;28;20036;-67
2023/11/13 04:04:33;;;;;;;7.13;3.92;;;6.30;99.90;;;;;;5032537;28;20387;-67
2023/11/13 04:06:58;;;;;;;5.30;3.47;;;6.30;99.90;;;;;;5037806;28;20556;-67
2023/11/13 04:09:24;;;;;;;6.22;3.58;;;6.30;99.90;;;;;;5037128;28;20474;-68
2023/11/13 04:11:50;;;;;;;8.20;4.15;;;6.30;99.90;;;;;;5043892;28;20036;-67
2023/11/13 04:14:16;;;;;;;8.10;3.75;;;6.30;99.90;;;;;;5016397;28;20054;-67
2023/11/13 04:16:42;;;;;;;12.65;4.90;;;6.30;99.90;;;;;;5041915;28;20047;-67
2023/11/13 04:19:08;;;;;;;7.57;4.32;;;6.30;99.90;;;;;;5047078;28;20513;-67
2023/11/13 04:21:34;;;;;;;8.27;4.38;;;6.30;99.90;;;;;;5036972;28;20104;-66
2023/11/13 04:24:01;;;;;;;7.20;4.10;;;6.30;99.90;;;;;;5039629;28;20104;-66
2023/11/13 04:26:27;;;;;;;8.02;4.57;;;6.30;99.90;;;;;;5030759;28;20017;-68
2023/11/13 04:28:53;;;;;;;6.55;3.90;;;6.30;99.90;;;;;;5040123;28;20082;-67
2023/11/13 04:31:19;;;;;;;7.18;4.18;;;6.30;99.90;;;;;;5038624;28;20029;-68
2023/11/13 04:33:45;;;;;;;6.28;4.40;;;6.40;99.90;;;;;;5041137;28;20523;-68
2023/11/13 04:36:11;;;;;;;10.77;4.82;;;6.40;99.90;;;;;;5036702;28;20041;-67
2023/11/13 04:38:40;;;;;;;8.75;3.97;;;6.40;99.90;;;;;;5033331;28;20510;-68
2023/11/13 04:41:06;;;;;;;6.80;3.75;;;6.40;99.90;;;;;;5036604;28;20071;-67
2023/11/13 04:43:31;;;;;;;7.28;4.07;;;6.40;99.90;;;;;;5034512;28;20034;-67
2023/11/13 04:45:57;;;;;;;8.13;4.20;;;6.40;99.90;;;;;;5036045;28;20013;-67
2023/11/13 04:48:23;;;;;;;7.25;3.88;;;6.40;99.90;;;;;;5012711;28;20064;-67
2023/11/13 04:50:48;;;;;;;6.82;3.42;;;6.40;99.90;;;;;;5044447;28;20223;-67
2023/11/13 04:53:14;;;;;;;6.75;3.72;;;6.40;99.90;;;;;;5039976;28;20071;-67
2023/11/13 04:55:39;;;;;;;6.55;3.33;;;6.40;99.90;;;;;;5034509;28;20060;-68
2023/11/13 04:58:05;;;;;;;6.55;3.63;;;6.40;99.90;;;;;;5030764;28;20030;-68
2023/11/13 05:00:31;;;;;;;5.38;3.33;;;6.40;99.90;;;;;;5033284;28;20041;-66
2023/11/13 05:02:57;;;;;;;6.10;3.85;;;6.40;99.90;;;;;;5028158;28;20030;-66
2023/11/13 05:05:22;;;;;;;8.30;3.70;;;6.50;99.90;;;;;;5031824;28;20030;-67
2023/11/13 05:07:48;;;;;;;8.90;4.18;;;6.50;99.90;;;;;;5034067;28;20455;-67
2023/11/13 05:10:14;;;;;;;6.70;4.00;;;6.50;99.90;;;;;;5032263;28;20028;-67
2023/11/13 05:12:39;;;;;;;6.82;3.83;;;6.50;99.90;;;;;;5031635;28;20033;-67
2023/11/13 05:15:05;;;;;;;4.38;2.95;;;6.50;99.90;;;;;;5028167;28;20078;-68
2023/11/13 05:17:32;;;;;;;4.45;2.97;;;6.60;99.90;;;;;;5010218;28;20544;-67
2023/11/13 05:19:59;;;;;;;7.78;2.92;;;6.60;99.90;;;;;;5045096;28;20083;-67
2023/11/13 05:22:25;;;;;;;6.30;3.40;;;6.60;99.90;;;;;;5030033;28;20056;-67
2023/11/13 05:24:51;;;;;;;6.18;3.35;;;6.60;99.90;;;;;;5046451;28;20037;-67
2023/11/13 05:27:16;;;;;;;5.15;3.15;;;6.60;99.90;;;;;;5047215;28;20040;-67
2023/11/13 05:29:42;;;;;;;8.27;3.72;;;6.60;99.90;;;;;;5046537;28;20028;-67
2023/11/13 05:32:08;;;;;;;5.80;3.60;;;6.70;99.90;;;;;;5052342;28;20032;-67
2023/11/13 05:34:33;;;;;;;5.35;3.28;;;6.70;99.90;;;;;;5047978;28;20037;-67
2023/11/13 05:36:59;;;;;;;7.03;3.83;;;6.70;99.90;;;;;;5049338;28;20425;-67
2023/11/13 05:39:24;;;;;;;6.60;3.92;;;6.70;99.90;;;;;;5048243;28;20044;-68
2023/11/13 05:41:50;;;;;;;6.40;3.72;;;6.70;99.90;;;;;;5047171;28;20051;-67
2023/11/13 05:44:16;;;;;;;6.43;3.10;;;6.70;99.90;;;;;;5048066;28;20061;-68
2023/11/13 05:46:41;;;;;;;6.18;3.50;;;6.80;99.90;;;;;;5049594;28;20033;-68
2023/11/13 05:49:07;;;;;;;10.30;3.97;;;6.80;99.90;;;;;;5041694;28;20112;-68
2023/11/13 05:51:33;;;;;;;7.38;3.70;;;6.80;99.90;;;;;;5031400;28;20022;-67
2023/11/13 05:53:58;;;;;;;8.75;3.67;;;6.80;99.90;;;;;;5025645;28;20030;-67
2023/11/13 05:56:24;;;;;;;4.53;3.00;;;6.80;99.90;;;;;;5031007;28;20056;-66
2023/11/13 05:58:49;;;;;;;5.05;3.10;;;6.90;99.90;;;;;;5032050;28;20108;-66
2023/11/13 06:01:18;;;;;;;6.45;3.83;;;6.90;99.90;;;;;;5005174;28;20084;-66
2023/11/13 06:03:44;;;;;;;8.23;3.53;;;6.90;99.90;;;;;;5028442;28;20025;-67
2023/11/13 06:06:16;;;;;;;5.95;3.30;;;6.90;99.90;;;;;;5028149;28;20487;-68
2023/11/13 06:08:44;;;;;;;4.60;3.13;;;6.90;99.90;;;;;;5029581;28;20510;-67
2023/11/13 06:11:10;;;;;;;4.20;3.00;;;6.90;99.90;;;;;;5027462;28;20056;-66
2023/11/13 06:13:35;;;;;;;5.75;3.05;;;6.90;99.90;;;;;;5030750;28;20458;-67
2023/11/13 06:16:02;;;;;;;6.93;3.15;;;6.90;99.90;;;;;;5026359;28;20034;-66
2023/11/13 06:18:27;;;;;;;4.70;2.88;;;6.90;99.90;;;;;;5031821;28;20031;-67
2023/11/13 06:20:53;;;;;;;5.93;3.55;;;7.00;99.90;;;;;;5026821;28;20029;-67
2023/11/13 06:23:19;;;;;;;4.70;3.03;;;6.90;99.90;;;;;;5027389;28;20513;-66
2023/11/13 06:25:44;;;;;;;3.80;2.58;;;7.00;99.90;;;;;;5028535;28;20037;-67
2023/11/13 06:28:10;;;;;;;4.95;3.05;;;7.00;99.90;;;;;;5030138;28;20033;-66
2023/11/13 06:30:36;;;;;;;5.97;3.15;;;7.10;99.90;;;;;;5029621;28;20518;-67
2023/11/13 06:33:02;;;;;;;13.27;2.97;;;7.10;99.90;;;;;;5032405;28;20029;-67
2023/11/13 06:35:28;;;;;;;4.28;2.75;;;7.10;99.90;;;;;;5029539;28;20124;-67
2023/11/13 06:37:54;;;;;;;6.40;2.58;;;7.20;99.90;;;;;;5029508;28;20578;-67
2023/11/13 06:40:19;;;;;;;4.78;3.08;;;7.20;99.90;;;;;;5030238;28;20026;-67
2023/11/13 06:42:48;;;;;;;5.25;2.45;;;7.20;99.90;;;;;;5029170;28;20039;-67
2023/11/13 06:45:14;;;;;;;4.63;3.05;;;7.20;99.90;;;;;;5031804;28;20025;-67
2023/11/13 06:47:40;;;;;;;6.72;3.42;;;7.20;99.90;;;;;;5027720;28;20064;-67
2023/11/13 06:50:06;;;;;;;5.88;2.67;;;7.20;99.90;;;;;;5032058;28;20057;-67
2023/11/13 06:52:32;;;;;;;5.72;2.70;;;7.30;99.90;;;;;;5028245;28;20038;-65
2023/11/13 06:54:58;;;;;;;6.70;3.05;;;7.30;99.90;;;;;;5027452;28;20143;-67
2023/11/13 06:57:27;;;;;;;6.30;2.60;;;7.30;99.90;;;;;;5031434;28;20085;-68
2023/11/13 06:59:52;;;;;;;7.25;2.75;;;7.40;99.90;;;;;;5031584;28;20025;-68
2023/11/13 07:02:21;;;;;;;3.75;2.30;;;7.40;99.90;;;;;;5029400;28;20072;-67
2023/11/13 07:04:50;;;;;;;6.80;3.30;;;7.40;99.90;;;;;;5027112;28;20060;-66
2023/11/13 07:07:15;;;;;;;4.85;2.40;;;7.40;99.90;;;;;;5028761;28;20112;-66
2023/11/13 07:09:41;;;;;;;5.25;2.28;;;7.50;99.90;;;;;;5030135;28;20121;-67
2023/11/13 07:12:07;;;;;;;4.40;2.10;;;7.50;99.90;;;;;;5030987;28;20037;-67
2023/11/13 07:14:34;;;;;;;6.60;2.38;;;7.50;99.90;;;;;;5030017;28;20061;-65
2023/11/13 07:17:00;;;;;;;3.22;1.80;;;7.50;99.90;;;;;;5027200;28;20116;-67
2023/11/13 07:19:25;;;;;;;12.30;2.63;;;7.50;99.90;;;;;;5028566;28;20115;-67
2023/11/13 07:21:51;;;;;;;4.70;2.13;;;7.50;99.90;;;;;;5027398;28;20061;-68
2023/11/13 07:24:17;;;;;;;5.43;1.92;;;7.60;99.90;;;;;;5030652;28;20097;-67
2023/11/13 07:26:42;;;;;;;10.27;2.42;;;7.60;99.90;;;;;;5030348;28;20032;-68
2023/11/13 07:29:08;;;;;;;6.00;2.30;;;7.60;99.90;;;;;;5031632;28;20428;-67
2023/11/13 07:31:33;;;;;;;4.32;2.58;;;7.60;99.90;;;;;;5031706;28;20031;-67
2023/11/13 07:33:59;;;;;;;4.82;2.28;;;7.60;99.90;;;;;;5030265;28;20034;-67
2023/11/13 07:36:25;;;;;;;7.35;2.63;;;7.60;99.90;;;;;;5033610;28;20420;-68
2023/11/13 07:38:50;;;;;;;6.90;2.28;;;7.70;99.90;;;;;;5028791;28;20199;-67
2023/11/13 07:41:16;;;;;;;5.40;1.90;;;7.70;99.90;;;;;;5034742;28;20065;-67
2023/11/13 07:43:43;;;;;;;3.65;2.20;;;7.70;99.90;;;;;;5028042;28;20029;-67
2023/11/13 07:46:11;;;;;;;8.55;2.40;;;7.70;99.90;;;;;;5033088;28;20549;-67
2023/11/13 07:48:38;;;;;;;5.15;2.20;;;7.80;99.90;;;;;;5033785;28;20026;-67
2023/11/13 07:51:05;;;;;;;4.68;1.90;;;7.80;99.90;;;;;;5032001;28;20033;-65
2023/11/13 07:53:33;;;;;;;8.13;1.80;;;7.90;99.90;;;;;;5036498;28;20020;-68
2023/11/13 07:55:59;;;;;;;8.15;2.45;;;7.90;99.90;;;;;;5035433;28;20390;-68
2023/11/13 07:58:25;;;;;;;166.23;65.47;;;8.00;99.90;;;;;;5039501;28;20027;-68
2023/11/13 08:00:53;;;;;;;18.88;9.43;;;8.10;99.90;;;;;;5032489;28;20033;-68
2023/11/13 08:03:25;;;;;;;10.82;2.78;;;8.10;99.90;;;;;;5035184;28;20061;-68
2023/11/13 08:05:51;;;;;;;9.40;4.90;;;8.20;99.90;;;;;;5033358;28;20518;-67
2023/11/13 08:08:17;;;;;;;8.52;3.92;;;8.20;99.90;;;;;;5035416;28;20277;-68
2023/11/13 08:10:47;;;;;;;10.57;3.40;;;8.20;99.90;;;;;;5029726;28;20444;-67
2023/11/13 08:13:13;;;;;;;10.20;2.63;;;8.20;99.90;;;;;;5033110;28;20040;-68
2023/11/13 08:15:40;;;;;;;10.43;3.88;;;8.20;99.90;;;;;;5031317;28;20125;-67
2023/11/13 08:18:05;;;;;;;6.60;2.47;;;8.30;99.90;;;;;;5031614;28;20129;-67
2023/11/13 08:20:31;;;;;;;6.70;2.00;;;8.30;99.90;;;;;;5032122;28;20063;-67
2023/11/13 08:22:56;;;;;;;5.25;2.22;;;8.30;99.90;;;;;;5032170;28;20061;-67
2023/11/13 08:25:23;;;;;;;7.28;2.60;;;8.30;99.90;;;;;;5035128;28;20063;-67
2023/11/13 08:27:51;;;;;;;9.98;2.75;;;8.40;99.90;;;;;;5035579;28;20502;-68
2023/11/13 08:30:19;;;;;;;8.10;3.47;;;8.40;99.90;;;;;;5036682;28;20124;-67
2023/11/13 08:32:54;;;;;;;14.60;4.82;;;8.40;99.90;;;;;;5034754;28;20580;-67
2023/11/13 08:35:20;;;;;;;8.13;3.10;;;8.40;99.90;;;;;;5040064;28;20430;-67
2023/11/13 08:37:46;;;;;;;7.55;3.50;;;8.40;99.90;;;;;;5028714;28;20037;-68
2023/11/13 08:40:14;;;;;;;19.17;4.07;;;8.40;99.90;;;;;;5035018;28;20087;-67
2023/11/13 08:42:43;;;;;;;11.57;4.72;;;8.50;99.90;;;;;;5031698;28;20036;-68
2023/11/13 08:45:15;;;;;;;11.98;4.28;;;8.50;99.90;;;;;;5028170;28;20033;-66
2023/11/13 08:47:49;;;;;;;10.80;3.13;;;8.50;99.90;;;;;;5031792;28;20430;-67
2023/11/13 08:50:19;;;;;;;7.38;3.67;;;8.50;99.90;;;;;;5035210;28;20105;-67
2023/11/13 08:52:47;;;;;;;14.68;4.90;;;8.60;99.90;;;;;;5033413;28;20080;-67
2023/11/13 08:55:17;;;;;;;9.38;3.63;;;8.60;99.90;;;;;;5034131;28;20041;-67
2023/11/13 08:57:44;;;;;;;11.35;3.40;;;8.60;99.90;;;;;;5031162;28;20562;-67
2023/11/13 09:00:21;;;;;;;7.82;2.90;;;8.60;99.90;;;;;;5033292;28;20037;-67
2023/11/13 09:02:54;;;;;;;9.40;2.53;;;8.70;99.90;;;;;;5032347;28;20041;-67
2023/11/13 09:05:23;;;;;;;8.02;2.47;;;8.70;99.90;;;;;;5037494;28;20021;-67
2023/11/13 09:07:50;;;;;;;8.65;3.13;;;8.70;99.90;;;;;;5033967;28;20025;-68
2023/11/13 09:10:16;;;;;;;12.88;2.47;;;8.80;99.90;;;;;;5033682;28;20075;-68
2023/11/13 09:12:43;;;;;;;6.97;2.35;;;8.90;99.90;;;;;;5032283;28;20041;-68
2023/11/13 09:15:14;;;;;;;6.50;3.10;;;8.90;99.90;;;;;;5034781;28;20029;-67
2023/11/13 09:17:43;;;;;;;14.93;5.65;;;8.90;99.90;;;;;;5030839;28;20029;-66
2023/11/13 09:20:11;;;;;;;6.72;2.90;;;9.00;99.90;;;;;;5030920;28;20029;-67
2023/11/13 09:22:37;;;;;;;10.27;2.25;;;9.00;99.90;;;;;;5036029;28;20029;-66
2023/11/13 09:25:04;;;;;;;6.22;2.22;;;9.00;99.90;;;;;;5032725;28;20080;-68
2023/11/13 09:27:32;;;;;;;8.20;4.10;;;9.00;99.90;;;;;;5030906;28;20045;-67
2023/11/13 09:29:58;;;;;;;9.57;2.95;;;9.10;99.90;;;;;;5024005;28;20605;-67
2023/11/13 09:32:24;;;;;;;8.70;2.78;;;9.10;99.90;;;;;;5024955;28;20056;-68
2023/11/13 09:34:54;;;;;;;8.95;3.53;;;9.10;99.90;;;;;;5028076;28;20030;-66
2023/11/13 09:37:21;;;;;;;6.47;3.08;;;9.10;99.90;;;;;;5027755;28;20017;-67
2023/11/13 09:39:48;;;;;;;6.40;2.83;;;9.10;99.90;;;;;;5026058;28;20881;-67
2023/11/13 09:42:16;;;;;;;7.07;3.20;;;9.10;99.90;;;;;;5027438;28;20022;-67
2023/11/13 09:44:45;;;;;;;9.55;2.80;;;9.10;99.90;;;;;;5025265;28;20104;-67
2023/11/13 09:47:14;;;;;;;6.65;2.65;;;9.20;99.90;;;;;;5024463;28;20025;-67
2023/11/13 09:49:45;;;;;;;29.05;13.73;;;9.10;99.90;;;;;;5027247;28;20040;-68
2023/11/13 09:52:14;;;;;;;9.98;6.03;;;9.20;99.90;;;;;;5025747;28;20037;-69
2023/11/13 09:54:42;;;;;;;16.10;8.20;;;9.20;99.90;;;;;;5024174;28;20549;-67
2023/11/13 09:57:13;;;;;;;6.72;2.10;;;9.20;99.90;;;;;;5026509;28;20030;-67
2023/11/13 09:59:40;;;;;;;3.67;2.38;;;9.20;99.90;;;;;;5027241;28;20457;-68
2023/11/13 10:02:08;;;;;;;4.10;1.90;;;9.20;99.90;;;;;;5024045;28;20044;-67
2023/11/13 10:04:34;;;;;;;6.22;2.60;;;9.20;99.90;;;;;;5026533;28;20479;-66
2023/11/13 10:07:02;;;;;;;5.82;1.83;;;9.20;99.90;;;;;;5026442;28;20029;-67
2023/11/13 10:09:30;;;;;;;5.82;2.15;;;9.20;99.90;;;;;;5025690;28;20022;-67
2023/11/13 10:12:02;;;;;;;36.42;12.93;;;9.30;99.90;;;;;;5024805;28;20029;-67
2023/11/13 10:14:29;;;;;;;15.10;6.10;;;9.30;99.90;;;;;;5026601;28;20175;-69
2023/11/13 10:16:56;;;;;;;20.15;7.20;;;9.40;99.90;;;;;;5022776;28;20447;-68
2023/11/13 10:19:23;;;;;;;52.40;19.20;;;9.40;99.90;;;;;;5026501;28;20240;-66
2023/11/13 10:21:51;;;;;;;20.90;8.18;;;9.40;99.90;;;;;;5023423;28;20022;-67
2023/11/13 10:24:21;;;;;;;10.27;5.35;;;9.50;99.90;;;;;;5024555;28;20040;-66
2023/11/13 10:26:59;;;;;;;11.32;5.50;;;9.60;99.90;;;;;;5026229;28;20029;-68
2023/11/13 10:29:30;;;;;;;9.15;3.47;;;9.60;99.90;;;;;;5026330;28;20025;-67
2023/11/13 10:31:58;;;;;;;9.85;2.55;;;9.60;99.90;;;;;;5025029;28;20029;-67
2023/11/13 10:34:38;;;;;;;9.95;3.42;;;9.70;99.90;;;;;;5024311;28;20060;-67
2023/11/13 10:37:17;;;;;;;5.32;2.67;;;9.70;99.90;;;;;;5007599;28;20052;-67
2023/11/13 10:39:43;;;;;;;5.40;3.33;;;9.80;99.90;;;;;;5023210;28;20036;-67
2023/11/13 10:42:23;;;;;;;9.27;3.55;;;9.90;99.90;;;;;;5025022;28;20034;-66
2023/11/13 10:44:55;;;;;;;6.28;2.55;;;9.90;99.90;;;;;;5025554;28;20068;-67
2023/11/13 10:47:30;;;;;;;2.75;1.85;;;9.90;99.90;;;;;;5022740;28;20025;-67
2023/11/13 10:49:57;;;;;;;4.78;1.40;;;9.90;99.90;;;;;;5024444;28;20021;-67
2023/11/13 10:52:24;;;;;;;5.28;1.55;;;10.00;99.90;;;;;;5026449;28;20033;-67
2023/11/13 10:54:52;;;;;;;11.02;3.10;;;10.00;99.90;;;;;;5025324;28;20459;-67
2023/11/13 10:57:19;;;;;;;57.72;28.65;;;10.10;99.90;;;;;;5026136;28;20041;-68
2023/11/13 10:59:52;;;;;;;7.10;4.32;;;10.20;99.90;;;;;;5026016;28;20450;-67
2023/11/13 11:02:30;;;;;;;5.53;3.50;;;10.20;99.90;;;;;;5024335;28;20483;-67
2023/11/13 11:05:08;;;;;;;5.47;1.73;;;10.40;99.90;;;;;;5022879;28;20490;-67
2023/11/13 11:07:35;;;;;;;2.42;1.20;;;10.50;99.90;;;;;;5026341;28;20387;-67
2023/11/13 11:10:05;;;;;;;3.67;2.00;;;10.60;99.90;;;;;;5024886;28;20067;-68
2023/11/13 11:12:39;;;;;;;10.95;3.92;;;10.60;99.90;;;;;;5026750;28;20491;-68
2023/11/13 11:15:17;;;;;;;4.93;2.63;;;10.70;99.90;;;;;;5022649;28;20125;-67
2023/11/13 11:17:53;;;;;;;6.72;3.47;;;10.80;99.90;;;;;;5023474;28;20110;-67
2023/11/13 11:20:32;;;;;;;11.30;2.88;;;10.70;99.90;;;;;;5025897;28;20025;-67
2023/11/13 11:22:58;;;;;;;6.50;3.85;;;10.80;99.90;;;;;;5023449;28;20498;-68
2023/11/13 11:25:34;;;;;;;6.78;3.80;;;10.80;99.90;;;;;;5027695;28;20394;-67
2023/11/13 11:28:02;;;;;;;5.53;2.08;;;10.70;99.90;;;;;;5029661;28;20037;-66
2023/11/13 11:30:33;;;;;;;6.70;3.58;;;10.70;99.90;;;;;;5027227;28;20564;-66
2023/11/13 11:33:09;;;;;;;6.32;2.90;;;10.70;99.90;;;;;;5023157;28;20072;-66
2023/11/13 11:35:41;;;;;;;2.65;2.08;;;10.70;99.90;;;;;;4990687;28;20128;-67
2023/11/13 11:38:26;;;;;;;6.80;2.95;;;10.70;99.90;;;;;;5019779;28;20032;-67
2023/11/13 11:40:53;;;;;;;4.25;2.28;;;10.80;99.90;;;;;;5008027;28;20037;-67
2023/11/13 11:43:29;;;;;;;5.05;2.50;;;10.80;99.90;;;;;;5007413;28;20505;-68
2023/11/13 11:45:57;;;;;;;9.93;2.47;;;10.80;99.90;;;;;;5007434;28;20065;-67
2023/11/13 11:48:23;;;;;;;5.30;4.05;;;10.70;99.90;;;;;;5008603;28;20077;-67
2023/11/13 11:50:56;;;;;;;6.70;4.18;;;10.70;99.90;;;;;;5009948;28;20029;-67
2023/11/13 11:53:23;;;;;;;5.85;2.90;;;10.80;99.90;;;;;;5007280;28;20535;-67
2023/11/13 11:55:49;;;;;;;6.43;2.67;;;10.80;99.90;;;;;;5005007;28;20040;-66
2023/11/13 11:58:16;;;;;;;7.32;2.92;;;10.80;99.90;;;;;;5007667;28;20040;-68
2023/11/13 12:00:44;;;;;;;6.68;2.65;;;10.80;99.90;;;;;;5008486;28;20032;-67
2023/11/13 12:03:10;;;;;;;7.13;2.88;;;10.90;99.90;;;;;;5006847;28;20121;-67
2023/11/13 12:05:36;;;;;;;2.55;1.10;;;10.90;99.90;;;;;;5009198;28;20403;-67
2023/11/13 12:08:07;;;;;;;6.75;2.78;;;10.90;99.90;;;;;;5008548;28;20044;-67
2023/11/13 12:10:34;;;;;;;5.15;3.13;;;10.90;99.90;;;;;;5005973;28;20352;-66
2023/11/13 12:13:01;;;;;;;4.78;2.00;;;10.90;99.90;;;;;;5005819;28;20521;-67
2023/11/13 12:15:27;;;;;;;2.83;1.40;;;11.00;99.90;;;;;;5009142;28;20040;-67
2023/11/13 12:17:53;;;;;;;4.13;1.65;;;11.00;99.90;;;;;;5007728;28;20411;-66
2023/11/13 12:20:19;;;;;;;5.30;2.13;;;11.10;99.90;;;;;;5009180;28;20487;-67
2023/11/13 12:22:45;;;;;;;1.92;1.30;;;11.10;99.90;;;;;;5008193;28;20112;-68
2023/11/13 12:25:12;;;;;;;3.17;1.35;;;11.10;99.90;;;;;;5009416;28;20105;-67
2023/11/13 12:27:40;;;;;;;2.95;1.55;;;11.10;99.90;;;;;;5007503;28;20033;-67
2023/11/13 12:30:15;;;;;;;2.63;1.40;;;11.10;99.90;;;;;;5007336;28;20030;-67
2023/11/13 12:32:40;;;;;;;6.03;1.48;;;11.10;99.90;;;;;;5004623;28;20084;-67
2023/11/13 12:35:06;;;;;;;3.72;1.63;;;11.10;99.90;;;;;;4980266;28;20041;-68
2023/11/13 12:37:32;;;;;;;5.18;2.25;;;11.10;99.90;;;;;;5024794;28;20041;-67
2023/11/13 12:39:59;;;;;;;3.47;1.33;;;11.10;99.90;;;;;;5023375;28;20030;-68
2023/11/13 12:42:26;;;;;;;2.42;1.23;;;11.10;99.90;;;;;;5024697;28;20040;-68
2023/11/13 12:44:55;;;;;;;6.82;1.98;;;11.10;99.90;;;;;;5027373;28;20022;-67
2023/11/13 12:47:21;;;;;;;3.30;1.63;;;11.10;99.90;;;;;;5024583;28;20026;-67
2023/11/13 12:49:48;;;;;;;6.95;4.25;;;11.10;99.90;;;;;;5024172;28;20044;-67
2023/11/13 12:52:18;;;;;;;3.22;1.80;;;11.20;99.90;;;;;;5026678;28;20501;-67